KRNV

Details ICAO KRNV
Name CLEVELAND MUNI
Region United States
Timezone America/Chicago (UTC-6.0)
Plans Departing 7
Arriving 5
Stats Elevation 140 ft / 43 m (AMSL)
Location 33.761142° -90.757873°
Runways 1
Magnetic Variation 0.701° W
Sunrise 2017-12-18 13:03:49 UTC / 2017-12-18 07:03:49 Local
Sunset 2017-12-18 22:58:25 UTC / 2017-12-18 16:58:25 Local
Advertisement - Login to hide

Runways

ID Width Length Bearing (true) Bearing (mag) Surface Threshold Offset Overrun Length
17 75 ft / 23 m 4,017 ft / 1,224 m 177.88° 178.58° Asphalt 0 ft / 0 m 0 ft / 0 m
35 75 ft / 23 m 4,017 ft / 1,224 m 357.88° 358.58° Asphalt 0 ft / 0 m 0 ft / 0 m

Map

Weather


0- 5 10 15 20 25 30 35+ Temperature / ° C

Clouds and Precipitation
Forecast for 2017-12-18 12:00 UTC. Updated 2 hours ago

Ground ~20,000 ft ~40,000 ft Winds

METAR

KRNV 181055Z AUTO 24004KT 5SM BR OVC003 08/08 A3018 RMK AO2 T00780078

TAF

Not found

Frequencies

Recorded 124.17 MHz AWOS 3
Unicom 122.72 MHz CTAF/UNICOM
Warning: Do not use this data for real-world aviation or navigation. No guarantee of current accuracy is given.